Krebs, Oklahoma
Current Conditions -  °F | °C
As of 11:53 AM on Thursday 18 Dec 2014 (Local Time) from KMLC Reporting Station
Overcast Overcast  
Wind Chill: 44°   Ceiling: 600
Heat Index: 44°   Visibility: 10mi
Dew Point: 41°   Wind: 0mph
Humidity: 89%   Direction: NA
Pressure: 30.19"   Gusts: NA
Location:  34.93°N, 95.72°W
Report Text: KMLC 181753Z AUTO 00000KT 10SM OVC006 07/05 A3019 RMK AO2 SLP223 T00670050 10067 20044 58003
Loading
Personal Weather Stations






























Interactive Weather Map New forecast layout! Learn more

10-Day Weather Forecast

Advertisements
Track Severe Weather on mobile